Saturday, May 26, 2018, 8:11 AM EDT
Back to Local

KELZ, Wellsville Municipal Airport

Location: Wellsville, NY, United States Lat: 42.1
Local Time: 8:11 AM EDT (12:11 GMT) Lon: -78
Time Zone: US/Eastern Elev: 2122 ft

Show me the last for .
Show Decoded

2018-05-26 07:56 METAR KELZ 261156Z AUTO 25004KT 10SM CLR 19/12 A2991 RMK AO2 SLP113 T01940122
                 10194 20167 53008 =
2018-05-26 06:56 METAR KELZ 261056Z AUTO 25005KT 10SM CLR 18/11 A2990 RMK AO2 SLP110 T01830111 =
2018-05-26 05:56 METAR KELZ 260956Z AUTO 22005KT 10SM CLR 17/10 A2989 RMK AO2 SLP106 T01720100 =
2018-05-26 04:56 METAR KELZ 260856Z AUTO 24006KT 10SM CLR 18/10 A2988 RMK AO2 SLP104 T01780100
                 56008 =
2018-05-26 03:56 METAR KELZ 260756Z AUTO 24005KT 10SM CLR 18/09 A2989 RMK AO2 SLP106 T01830094 =
2018-05-26 02:56 METAR KELZ 260656Z AUTO 23004KT 10SM CLR 18/09 A2990 RMK AO2 SLP109 T01830089 =
2018-05-26 01:56 METAR KELZ 260556Z AUTO 24005KT 10SM CLR 19/08 A2991 RMK AO2 SLP113 T01940078
                 10250 20161 56004 =
2018-05-26 00:56 METAR KELZ 260456Z AUTO 24003KT 10SM CLR 18/08 A2991 RMK AO2 SLP114 T01780078
                 402780117 =
2018-05-25 23:56 METAR KELZ 260356Z AUTO 24003KT 10SM CLR 20/07 A2992 RMK AO2 SLP117 T02000067 =
2018-05-25 22:56 METAR KELZ 260256Z AUTO 26004KT 10SM CLR 21/07 A2992 RMK AO2 SLP118 T02060067
                 50004 =
2018-05-25 21:56 METAR KELZ 260156Z AUTO 27005KT 10SM CLR 19/08 A2992 RMK AO2 SLP121 T01940083 =
2018-05-25 20:56 METAR KELZ 260056Z AUTO 26006KT 10SM CLR 23/08 A2992 RMK AO2 SLP117 T02280078 =
2018-05-25 19:56 METAR KELZ 252356Z AUTO 25005KT 10SM CLR 25/07 A2991 RMK AO2 SLP116 T02500072
                 10278 20250 56006 =
2018-05-25 18:56 METAR KELZ 252256Z AUTO 26010KT 10SM CLR 27/08 A2991 RMK AO2 SLP115 T02670078 =
2018-05-25 17:56 METAR KELZ 252156Z AUTO 24008KT 10SM CLR 27/09 A2992 RMK AO2 SLP121 T02720089 =
2018-05-25 16:56 METAR KELZ 252056Z AUTO 28012G18KT 10SM CLR 27/08 A2993 RMK AO2 SLP124 T02720083
                 58022 =
2018-05-25 15:56 METAR KELZ 251956Z AUTO 24008G17KT 10SM CLR 27/09 A2996 RMK AO2 SLP132 T02720094
                 =
2018-05-25 14:56 METAR KELZ 251856Z AUTO 24008KT 10SM CLR 27/11 A2997 RMK AO2 SLP138 T02720106 =
2018-05-25 13:56 METAR KELZ 251756Z AUTO 22008KT 10SM CLR 26/10 A3000 RMK AO2 SLP147 T02610100
                 10267 20167 58017 =
2018-05-25 12:56 METAR KELZ 251656Z AUTO 27009G17KT 10SM CLR 25/09 A3002 RMK AO2 SLP153 T02500089
                 =
2018-05-25 11:56 METAR KELZ 251556Z AUTO 30006KT 10SM CLR 25/11 A3004 RMK AO2 SLP160 T02500106 =
2018-05-25 10:56 METAR KELZ 251456Z AUTO 31009KT 10SM CLR 24/11 A3005 RMK AO2 SLP165 T02390106
                 58013 =
2018-05-25 09:56 METAR KELZ 251356Z AUTO 28009KT 10SM CLR 23/10 A3007 RMK AO2 SLP171 T02280100 =
2018-05-25 08:56 METAR KELZ 251256Z AUTO 22003KT 10SM CLR 21/12 A3009 RMK AO2 SLP178 T02060117 =

Support USWX by starting your Amazon purchase here.